sensor_id;sensor_type;location;lat;lon;timestamp;temperature;humidity
42867;DHT22;39461;40.948;73.006;2022-08-01T00:00:09;23.70;74.90
42867;DHT22;39461;40.948;73.006;2022-08-01T00:02:42;23.40;76.90
42867;DHT22;39461;40.948;73.006;2022-08-01T00:05:15;23.30;78.40
42867;DHT22;39461;40.948;73.006;2022-08-01T00:07:48;23.20;79.00
42867;DHT22;39461;40.948;73.006;2022-08-01T00:10:21;23.20;82.10
42867;DHT22;39461;40.948;73.006;2022-08-01T00:13:00;23.20;84.30
42867;DHT22;39461;40.948;73.006;2022-08-01T00:15:33;23.30;89.40
42867;DHT22;39461;40.948;73.006;2022-08-01T00:18:06;23.30;90.30
42867;DHT22;39461;40.948;73.006;2022-08-01T00:20:38;23.40;92.50
42867;DHT22;39461;40.948;73.006;2022-08-01T00:23:18;23.30;92.20
42867;DHT22;39461;40.948;73.006;2022-08-01T00:25:51;23.40;92.80
42867;DHT22;39461;40.948;73.006;2022-08-01T00:28:24;23.30;92.90
42867;DHT22;39461;40.948;73.006;2022-08-01T00:30:56;23.30;92.10
42867;DHT22;39461;40.948;73.006;2022-08-01T00:33:30;23.30;92.10
42867;DHT22;39461;40.948;73.006;2022-08-01T00:35:58;23.30;93.60
42867;DHT22;39461;40.948;73.006;2022-08-01T00:38:32;23.30;94.10
42867;DHT22;39461;40.948;73.006;2022-08-01T00:41:05;23.40;93.70
42867;DHT22;39461;40.948;73.006;2022-08-01T00:43:38;23.30;94.60
42867;DHT22;39461;40.948;73.006;2022-08-01T00:46:11;23.20;94.50
42867;DHT22;39461;40.948;73.006;2022-08-01T00:48:44;23.30;94.20
42867;DHT22;39461;40.948;73.006;2022-08-01T00:51:17;23.30;94.70
42867;DHT22;39461;40.948;73.006;2022-08-01T00:53:51;23.30;96.00
42867;DHT22;39461;40.948;73.006;2022-08-01T00:56:25;23.20;96.80
42867;DHT22;39461;40.948;73.006;2022-08-01T00:58:59;23.20;96.60
42867;DHT22;39461;40.948;73.006;2022-08-01T01:01:38;23.20;95.30
42867;DHT22;39461;40.948;73.006;2022-08-01T01:04:11;23.20;94.50
42867;DHT22;39461;40.948;73.006;2022-08-01T01:06:59;23.20;95.60
42867;DHT22;39461;40.948;73.006;2022-08-01T01:09:52;23.10;96.10
42867;DHT22;39461;40.948;73.006;2022-08-01T01:15:26;23.20;96.50
42867;DHT22;39461;40.948;73.006;2022-08-01T01:18:09;23.30;96.30
42867;DHT22;39461;40.948;73.006;2022-08-01T01:20:52;23.30;96.40
42867;DHT22;39461;40.948;73.006;2022-08-01T01:26:58;23.40;97.20
42867;DHT22;39461;40.948;73.006;2022-08-01T01:29:42;23.40;98.10
42867;DHT22;39461;40.948;73.006;2022-08-01T01:32:25;23.40;98.20
42867;DHT22;39461;40.948;73.006;2022-08-01T01:35:09;23.40;98.40
42867;DHT22;39461;40.948;73.006;2022-08-01T01:37:44;23.40;99.40
42867;DHT22;39461;40.948;73.006;2022-08-01T01:40:14;23.40;99.70
42867;DHT22;39461;40.948;73.006;2022-08-01T01:42:49;23.40;99.90
42867;DHT22;39461;40.948;73.006;2022-08-01T01:45:23;23.50;99.90
42867;DHT22;39461;40.948;73.006;2022-08-01T01:47:57;23.70;99.90
42867;DHT22;39461;40.948;73.006;2022-08-01T01:50:28;23.90;99.40
42867;DHT22;39461;40.948;73.006;2022-08-01T01:53:06;24.10;99.40
42867;DHT22;39461;40.948;73.006;2022-08-01T01:55:45;24.30;99.00
42867;DHT22;39461;40.948;73.006;2022-08-01T01:58:20;24.40;98.20
42867;DHT22;39461;40.948;73.006;2022-08-01T02:00:56;24.50;98.60
42867;DHT22;39461;40.948;73.006;2022-08-01T02:03:24;24.60;98.10
42867;DHT22;39461;40.948;73.006;2022-08-01T02:06:01;24.80;98.40
42867;DHT22;39461;40.948;73.006;2022-08-01T02:08:37;24.90;97.70
42867;DHT22;39461;40.948;73.006;2022-08-01T02:11:14;25.00;97.00
42867;DHT22;39461;40.948;73.006;2022-08-01T02:14:00;25.20;96.60
42867;DHT22;39461;40.948;73.006;2022-08-01T02:16:59;25.30;94.90
42867;DHT22;39461;40.948;73.006;2022-08-01T02:19:38;25.40;94.20
42867;DHT22;39461;40.948;73.006;2022-08-01T02:22:13;25.40;93.90
42867;DHT22;39461;40.948;73.006;2022-08-01T02:24:58;25.50;93.10
42867;DHT22;39461;40.948;73.006;2022-08-01T02:27:36;25.50;93.20
42867;DHT22;39461;40.948;73.006;2022-08-01T02:30:13;25.70;92.50
42867;DHT22;39461;40.948;73.006;2022-08-01T02:32:59;25.80;92.10
42867;DHT22;39461;40.948;73.006;2022-08-01T02:35:36;25.90;91.80
42867;DHT22;39461;40.948;73.006;2022-08-01T02:38:11;26.10;91.40
42867;DHT22;39461;40.948;73.006;2022-08-01T02:40:49;26.20;91.30
42867;DHT22;39461;40.948;73.006;2022-08-01T02:43:21;26.30;91.20
42867;DHT22;39461;40.948;73.006;2022-08-01T02:46:01;26.50;90.10
42867;DHT22;39461;40.948;73.006;2022-08-01T02:48:30;26.70;88.40
42867;DHT22;39461;40.948;73.006;2022-08-01T02:51:06;26.80;88.10
42867;DHT22;39461;40.948;73.006;2022-08-01T02:53:41;26.90;87.40
42867;DHT22;39461;40.948;73.006;2022-08-01T02:56:12;27.10;86.30
42867;DHT22;39461;40.948;73.006;2022-08-01T02:58:48;27.30;86.10
42867;DHT22;39461;40.948;73.006;2022-08-01T03:01:24;27.50;86.80
42867;DHT22;39461;40.948;73.006;2022-08-01T03:03:57;27.50;83.40
42867;DHT22;39461;40.948;73.006;2022-08-01T03:06:31;27.70;82.20
42867;DHT22;39461;40.948;73.006;2022-08-01T03:09:07;27.90;80.90
42867;DHT22;39461;40.948;73.006;2022-08-01T03:11:45;27.90;81.30
42867;DHT22;39461;40.948;73.006;2022-08-01T03:14:22;28.10;78.70
42867;DHT22;39461;40.948;73.006;2022-08-01T03:16:55;28.30;78.90
42867;DHT22;39461;40.948;73.006;2022-08-01T03:19:24;28.30;78.20
42867;DHT22;39461;40.948;73.006;2022-08-01T03:21:59;28.40;77.20
42867;DHT22;39461;40.948;73.006;2022-08-01T03:24:37;28.50;76.90
42867;DHT22;39461;40.948;73.006;2022-08-01T03:27:07;28.60;76.10
42867;DHT22;39461;40.948;73.006;2022-08-01T03:29:41;28.60;74.30
42867;DHT22;39461;40.948;73.006;2022-08-01T03:32:40;28.60;74.80
42867;DHT22;39461;40.948;73.006;2022-08-01T03:35:09;28.70;75.40
42867;DHT22;39461;40.948;73.006;2022-08-01T03:37:46;28.90;73.40
42867;DHT22;39461;40.948;73.006;2022-08-01T03:40:31;29.10;72.50
42867;DHT22;39461;40.948;73.006;2022-08-01T03:43:41;29.20;71.50
42867;DHT22;39461;40.948;73.006;2022-08-01T03:46:20;29.30;71.20
42867;DHT22;39461;40.948;73.006;2022-08-01T03:49:02;29.40;70.20
42867;DHT22;39461;40.948;73.006;2022-08-01T03:51:31;29.60;70.00
42867;DHT22;39461;40.948;73.006;2022-08-01T03:54:01;29.70;68.80
42867;DHT22;39461;40.948;73.006;2022-08-01T03:56:37;29.80;68.40
42867;DHT22;39461;40.948;73.006;2022-08-01T03:59:14;29.90;68.40
42867;DHT22;39461;40.948;73.006;2022-08-01T04:01:48;30.10;67.70
42867;DHT22;39461;40.948;73.006;2022-08-01T04:04:23;30.20;66.40
42867;DHT22;39461;40.948;73.006;2022-08-01T04:06:57;30.40;64.80
42867;DHT22;39461;40.948;73.006;2022-08-01T04:09:36;30.50;65.40
42867;DHT22;39461;40.948;73.006;2022-08-01T04:12:09;30.70;63.80
42867;DHT22;39461;40.948;73.006;2022-08-01T04:14:42;30.80;63.90
42867;DHT22;39461;40.948;73.006;2022-08-01T04:17:40;30.90;62.70
42867;DHT22;39461;40.948;73.006;2022-08-01T04:20:13;30.70;60.00
42867;DHT22;39461;40.948;73.006;2022-08-01T04:22:49;30.70;59.80
42867;DHT22;39461;40.948;73.006;2022-08-01T04:25:28;30.80;60.10
42867;DHT22;39461;40.948;73.006;2022-08-01T04:28:03;30.80;60.60
42867;DHT22;39461;40.948;73.006;2022-08-01T04:30:38;30.90;60.10
42867;DHT22;39461;40.948;73.006;2022-08-01T04:33:14;31.00;60.80
42867;DHT22;39461;40.948;73.006;2022-08-01T04:35:49;31.10;59.20
42867;DHT22;39461;40.948;73.006;2022-08-01T04:38:26;31.20;60.20
42867;DHT22;39461;40.948;73.006;2022-08-01T04:41:00;31.30;59.10
42867;DHT22;39461;40.948;73.006;2022-08-01T04:43:35;31.40;58.00
42867;DHT22;39461;40.948;73.006;2022-08-01T04:46:11;31.30;56.20
42867;DHT22;39461;40.948;73.006;2022-08-01T04:48:48;31.40;56.30
42867;DHT22;39461;40.948;73.006;2022-08-01T04:51:27;31.30;55.00
42867;DHT22;39461;40.948;73.006;2022-08-01T04:54:00;31.40;56.70
42867;DHT22;39461;40.948;73.006;2022-08-01T04:56:33;31.50;56.60
42867;DHT22;39461;40.948;73.006;2022-08-01T04:59:06;31.60;56.30
42867;DHT22;39461;40.948;73.006;2022-08-01T05:01:51;31.70;56.70
42867;DHT22;39461;40.948;73.006;2022-08-01T05:04:18;32.00;55.50
42867;DHT22;39461;40.948;73.006;2022-08-01T05:06:51;32.00;55.30
42867;DHT22;39461;40.948;73.006;2022-08-01T05:09:26;32.10;55.90
42867;DHT22;39461;40.948;73.006;2022-08-01T05:12:02;32.10;55.50
42867;DHT22;39461;40.948;73.006;2022-08-01T05:14:36;32.10;53.60
42867;DHT22;39461;40.948;73.006;2022-08-01T05:17:04;32.10;55.20
42867;DHT22;39461;40.948;73.006;2022-08-01T05:19:39;32.00;54.10
42867;DHT22;39461;40.948;73.006;2022-08-01T05:22:14;31.90;55.10
42867;DHT22;39461;40.948;73.006;2022-08-01T05:24:49;31.90;55.10
42867;DHT22;39461;40.948;73.006;2022-08-01T05:27:22;31.90;53.40
42867;DHT22;39461;40.948;73.006;2022-08-01T05:29:58;31.90;54.30
42867;DHT22;39461;40.948;73.006;2022-08-01T05:32:33;31.90;54.60
42867;DHT22;39461;40.948;73.006;2022-08-01T05:35:08;31.90;53.90
42867;DHT22;39461;40.948;73.006;2022-08-01T05:37:42;31.90;53.60
42867;DHT22;39461;40.948;73.006;2022-08-01T05:40:16;31.90;54.50
42867;DHT22;39461;40.948;73.006;2022-08-01T05:42:49;31.80;54.10
42867;DHT22;39461;40.948;73.006;2022-08-01T05:45:22;32.00;54.60
42867;DHT22;39461;40.948;73.006;2022-08-01T05:47:59;32.10;56.00
42867;DHT22;39461;40.948;73.006;2022-08-01T05:50:28;32.30;55.20
42867;DHT22;39461;40.948;73.006;2022-08-01T05:53:03;32.30;53.80
42867;DHT22;39461;40.948;73.006;2022-08-01T05:55:36;32.30;53.40
42867;DHT22;39461;40.948;73.006;2022-08-01T05:58:10;32.30;54.90
42867;DHT22;39461;40.948;73.006;2022-08-01T06:00:45;32.40;55.30
42867;DHT22;39461;40.948;73.006;2022-08-01T06:03:22;32.40;53.10
42867;DHT22;39461;40.948;73.006;2022-08-01T06:05:59;32.50;54.90
42867;DHT22;39461;40.948;73.006;2022-08-01T06:08:34;32.50;54.90
42867;DHT22;39461;40.948;73.006;2022-08-01T06:11:04;32.50;55.00
42867;DHT22;39461;40.948;73.006;2022-08-01T06:13:43;32.60;54.60
42867;DHT22;39461;40.948;73.006;2022-08-01T06:16:18;32.60;53.70
42867;DHT22;39461;40.948;73.006;2022-08-01T06:19:04;32.60;53.60
42867;DHT22;39461;40.948;73.006;2022-08-01T06:21:39;32.70;53.70
42867;DHT22;39461;40.948;73.006;2022-08-01T06:24:12;32.70;53.90
42867;DHT22;39461;40.948;73.006;2022-08-01T06:26:52;32.50;52.80
42867;DHT22;39461;40.948;73.006;2022-08-01T06:29:55;32.40;53.00
42867;DHT22;39461;40.948;73.006;2022-08-01T06:32:30;32.20;52.00
42867;DHT22;39461;40.948;73.006;2022-08-01T06:35:04;32.20;52.80
42867;DHT22;39461;40.948;73.006;2022-08-01T06:37:42;32.20;52.10
42867;DHT22;39461;40.948;73.006;2022-08-01T06:40:30;32.20;53.30
42867;DHT22;39461;40.948;73.006;2022-08-01T06:43:14;32.20;52.80
42867;DHT22;39461;40.948;73.006;2022-08-01T06:45:57;32.20;52.00
42867;DHT22;39461;40.948;73.006;2022-08-01T06:48:31;32.20;53.30
42867;DHT22;39461;40.948;73.006;2022-08-01T06:51:06;32.30;53.40
42867;DHT22;39461;40.948;73.006;2022-08-01T06:53:59;32.40;52.60
42867;DHT22;39461;40.948;73.006;2022-08-01T06:56:40;32.50;51.50
42867;DHT22;39461;40.948;73.006;2022-08-01T06:59:25;32.70;52.50
42867;DHT22;39461;40.948;73.006;2022-08-01T07:02:20;32.80;53.40
42867;DHT22;39461;40.948;73.006;2022-08-01T07:05:01;32.70;52.10
42867;DHT22;39461;40.948;73.006;2022-08-01T07:07:53;32.70;51.70
42867;DHT22;39461;40.948;73.006;2022-08-01T07:10:37;32.70;52.20
42867;DHT22;39461;40.948;73.006;2022-08-01T07:13:29;32.80;52.20
42867;DHT22;39461;40.948;73.006;2022-08-01T07:16:16;32.80;52.80
42867;DHT22;39461;40.948;73.006;2022-08-01T07:19:00;32.90;52.40
42867;DHT22;39461;40.948;73.006;2022-08-01T07:21:45;33.10;53.00
42867;DHT22;39461;40.948;73.006;2022-08-01T07:24:50;33.20;53.00
42867;DHT22;39461;40.948;73.006;2022-08-01T07:27:34;33.20;51.40
42867;DHT22;39461;40.948;73.006;2022-08-01T07:30:11;33.30;52.60
42867;DHT22;39461;40.948;73.006;2022-08-01T07:33:20;33.30;52.50
42867;DHT22;39461;40.948;73.006;2022-08-01T07:36:10;33.20;51.10
42867;DHT22;39461;40.948;73.006;2022-08-01T07:38:57;33.30;52.00
42867;DHT22;39461;40.948;73.006;2022-08-01T07:41:44;33.30;52.40
42867;DHT22;39461;40.948;73.006;2022-08-01T07:44:25;33.30;52.30
42867;DHT22;39461;40.948;73.006;2022-08-01T07:47:06;33.30;51.70
42867;DHT22;39461;40.948;73.006;2022-08-01T07:50:09;33.30;51.90
42867;DHT22;39461;40.948;73.006;2022-08-01T07:52:47;33.20;51.00
42867;DHT22;39461;40.948;73.006;2022-08-01T07:55:55;33.10;51.80
42867;DHT22;39461;40.948;73.006;2022-08-01T07:58:33;33.20;52.00
42867;DHT22;39461;40.948;73.006;2022-08-01T08:01:21;33.30;51.40
42867;DHT22;39461;40.948;73.006;2022-08-01T08:04:16;33.20;50.90
42867;DHT22;39461;40.948;73.006;2022-08-01T08:07:15;33.20;50.10
42867;DHT22;39461;40.948;73.006;2022-08-01T08:10:00;33.30;49.80
42867;DHT22;39461;40.948;73.006;2022-08-01T08:12:40;33.30;49.40
42867;DHT22;39461;40.948;73.006;2022-08-01T08:15:31;33.50;51.10
42867;DHT22;39461;40.948;73.006;2022-08-01T08:18:17;33.50;48.90
42867;DHT22;39461;40.948;73.006;2022-08-01T08:21:04;33.30;49.30
42867;DHT22;39461;40.948;73.006;2022-08-01T08:23:58;33.50;50.40
42867;DHT22;39461;40.948;73.006;2022-08-01T08:27:16;33.50;49.50
42867;DHT22;39461;40.948;73.006;2022-08-01T08:30:14;33.70;50.40
42867;DHT22;39461;40.948;73.006;2022-08-01T08:33:06;33.70;50.30
42867;DHT22;39461;40.948;73.006;2022-08-01T08:35:48;33.80;50.20
42867;DHT22;39461;40.948;73.006;2022-08-01T08:38:24;33.70;49.00
42867;DHT22;39461;40.948;73.006;2022-08-01T08:41:39;33.60;49.00
42867;DHT22;39461;40.948;73.006;2022-08-01T08:44:29;33.50;49.60
42867;DHT22;39461;40.948;73.006;2022-08-01T08:47:39;33.40;49.10
42867;DHT22;39461;40.948;73.006;2022-08-01T08:50:28;33.40;50.40
42867;DHT22;39461;40.948;73.006;2022-08-01T08:56:59;33.70;50.00
42867;DHT22;39461;40.948;73.006;2022-08-01T08:59:47;33.70;50.20
42867;DHT22;39461;40.948;73.006;2022-08-01T09:02:36;33.50;50.20
42867;DHT22;39461;40.948;73.006;2022-08-01T09:05:52;33.70;50.50
42867;DHT22;39461;40.948;73.006;2022-08-01T09:08:41;33.60;50.00
42867;DHT22;39461;40.948;73.006;2022-08-01T09:11:38;33.60;50.20
42867;DHT22;39461;40.948;73.006;2022-08-01T09:14:30;33.50;50.40
42867;DHT22;39461;40.948;73.006;2022-08-01T09:17:15;33.50;50.80
42867;DHT22;39461;40.948;73.006;2022-08-01T09:20:40;33.60;50.80
42867;DHT22;39461;40.948;73.006;2022-08-01T09:23:05;33.70;50.70
42867;DHT22;39461;40.948;73.006;2022-08-01T09:26:04;33.80;50.40
42867;DHT22;39461;40.948;73.006;2022-08-01T09:28:58;33.80;50.00
42867;DHT22;39461;40.948;73.006;2022-08-01T09:31:44;33.90;50.70
42867;DHT22;39461;40.948;73.006;2022-08-01T09:34:46;34.00;51.30
42867;DHT22;39461;40.948;73.006;2022-08-01T09:37:50;34.00;50.60
42867;DHT22;39461;40.948;73.006;2022-08-01T09:40:59;34.00;50.90
42867;DHT22;39461;40.948;73.006;2022-08-01T09:43:57;34.10;51.10
42867;DHT22;39461;40.948;73.006;2022-08-01T09:46:55;33.90;51.20
42867;DHT22;39461;40.948;73.006;2022-08-01T09:49:42;33.80;51.70
42867;DHT22;39461;40.948;73.006;2022-08-01T09:52:39;33.70;51.80
42867;DHT22;39461;40.948;73.006;2022-08-01T09:55:33;33.70;52.00
42867;DHT22;39461;40.948;73.006;2022-08-01T09:58:13;33.70;52.50
42867;DHT22;39461;40.948;73.006;2022-08-01T10:01:07;33.60;53.00
42867;DHT22;39461;40.948;73.006;2022-08-01T10:04:03;33.50;53.00
42867;DHT22;39461;40.948;73.006;2022-08-01T10:06:50;33.40;54.20
42867;DHT22;39461;40.948;73.006;2022-08-01T10:09:51;33.50;54.30
42867;DHT22;39461;40.948;73.006;2022-08-01T10:12:51;33.60;54.40
42867;DHT22;39461;40.948;73.006;2022-08-01T10:15:59;33.70;55.00
42867;DHT22;39461;40.948;73.006;2022-08-01T10:18:43;33.60;55.20
42867;DHT22;39461;40.948;73.006;2022-08-01T10:21:30;33.60;55.00
42867;DHT22;39461;40.948;73.006;2022-08-01T10:24:55;33.60;54.20
42867;DHT22;39461;40.948;73.006;2022-08-01T10:27:48;33.80;55.00
42867;DHT22;39461;40.948;73.006;2022-08-01T10:30:24;34.00;53.80
42867;DHT22;39461;40.948;73.006;2022-08-01T10:33:16;34.00;52.10
42867;DHT22;39461;40.948;73.006;2022-08-01T10:36:07;34.20;52.50
42867;DHT22;39461;40.948;73.006;2022-08-01T10:39:06;34.00;51.70
42867;DHT22;39461;40.948;73.006;2022-08-01T10:41:55;33.80;50.70
42867;DHT22;39461;40.948;73.006;2022-08-01T10:44:44;33.60;51.10
42867;DHT22;39461;40.948;73.006;2022-08-01T10:48:22;33.30;53.60
42867;DHT22;39461;40.948;73.006;2022-08-01T10:51:37;32.90;54.40
42867;DHT22;39461;40.948;73.006;2022-08-01T10:54:18;32.70;55.00
42867;DHT22;39461;40.948;73.006;2022-08-01T10:57:07;32.60;55.40
42867;DHT22;39461;40.948;73.006;2022-08-01T11:00:26;32.60;55.20
42867;DHT22;39461;40.948;73.006;2022-08-01T11:03:25;32.40;55.40
42867;DHT22;39461;40.948;73.006;2022-08-01T11:06:39;32.40;56.10
42867;DHT22;39461;40.948;73.006;2022-08-01T11:12:20;32.70;55.10
42867;DHT22;39461;40.948;73.006;2022-08-01T11:17:41;32.80;53.90
42867;DHT22;39461;40.948;73.006;2022-08-01T11:20:40;32.90;55.00
42867;DHT22;39461;40.948;73.006;2022-08-01T11:23:51;32.90;55.20
42867;DHT22;39461;40.948;73.006;2022-08-01T11:26:33;33.00;55.20
42867;DHT22;39461;40.948;73.006;2022-08-01T11:29:17;32.90;56.00
42867;DHT22;39461;40.948;73.006;2022-08-01T11:32:24;32.70;56.40
42867;DHT22;39461;40.948;73.006;2022-08-01T11:34:58;32.30;56.50
42867;DHT22;39461;40.948;73.006;2022-08-01T11:37:42;32.20;57.20
42867;DHT22;39461;40.948;73.006;2022-08-01T11:40:26;32.00;57.40
42867;DHT22;39461;40.948;73.006;2022-08-01T11:43:21;32.00;58.10
42867;DHT22;39461;40.948;73.006;2022-08-01T11:46:00;31.80;57.80
42867;DHT22;39461;40.948;73.006;2022-08-01T11:48:41;31.70;58.10
42867;DHT22;39461;40.948;73.006;2022-08-01T11:51:24;31.70;58.20
42867;DHT22;39461;40.948;73.006;2022-08-01T11:54:32;31.70;57.80
42867;DHT22;39461;40.948;73.006;2022-08-01T11:57:26;31.60;57.90
42867;DHT22;39461;40.948;73.006;2022-08-01T12:00:19;31.60;58.00
42867;DHT22;39461;40.948;73.006;2022-08-01T12:03:06;31.60;58.10
42867;DHT22;39461;40.948;73.006;2022-08-01T12:05:52;31.60;58.20
42867;DHT22;39461;40.948;73.006;2022-08-01T12:08:33;31.60;58.10
42867;DHT22;39461;40.948;73.006;2022-08-01T12:11:07;31.50;58.20
42867;DHT22;39461;40.948;73.006;2022-08-01T12:13:47;31.50;58.20
42867;DHT22;39461;40.948;73.006;2022-08-01T12:16:26;31.50;57.80
42867;DHT22;39461;40.948;73.006;2022-08-01T12:19:02;31.40;57.70
42867;DHT22;39461;40.948;73.006;2022-08-01T12:21:39;31.40;58.10
42867;DHT22;39461;40.948;73.006;2022-08-01T12:24:25;31.30;58.40
42867;DHT22;39461;40.948;73.006;2022-08-01T12:27:05;31.30;58.80
42867;DHT22;39461;40.948;73.006;2022-08-01T12:29:59;31.20;59.00
42867;DHT22;39461;40.948;73.006;2022-08-01T12:32:41;31.30;60.20
42867;DHT22;39461;40.948;73.006;2022-08-01T12:35:20;31.30;61.00
42867;DHT22;39461;40.948;73.006;2022-08-01T12:37:54;31.30;61.10
42867;DHT22;39461;40.948;73.006;2022-08-01T12:40:42;31.30;60.00
42867;DHT22;39461;40.948;73.006;2022-08-01T12:43:33;31.20;59.40
42867;DHT22;39461;40.948;73.006;2022-08-01T12:46:19;31.10;59.40
42867;DHT22;39461;40.948;73.006;2022-08-01T12:49:01;31.10;59.60
42867;DHT22;39461;40.948;73.006;2022-08-01T12:51:31;31.10;58.00
42867;DHT22;39461;40.948;73.006;2022-08-01T12:54:07;30.90;58.40
42867;DHT22;39461;40.948;73.006;2022-08-01T12:56:56;30.80;59.10
42867;DHT22;39461;40.948;73.006;2022-08-01T12:59:42;30.80;59.10
42867;DHT22;39461;40.948;73.006;2022-08-01T13:02:33;30.70;58.90
42867;DHT22;39461;40.948;73.006;2022-08-01T13:05:08;30.60;59.50
42867;DHT22;39461;40.948;73.006;2022-08-01T13:07:50;30.60;59.60
42867;DHT22;39461;40.948;73.006;2022-08-01T13:10:34;30.60;58.80
42867;DHT22;39461;40.948;73.006;2022-08-01T13:13:21;30.50;57.60
42867;DHT22;39461;40.948;73.006;2022-08-01T13:16:03;30.50;56.60
42867;DHT22;39461;40.948;73.006;2022-08-01T13:18:48;30.40;56.70
42867;DHT22;39461;40.948;73.006;2022-08-01T13:21:34;30.30;55.30
42867;DHT22;39461;40.948;73.006;2022-08-01T13:24:12;30.30;55.50
42867;DHT22;39461;40.948;73.006;2022-08-01T13:27:03;30.20;55.60
42867;DHT22;39461;40.948;73.006;2022-08-01T13:29:44;30.20;55.50
42867;DHT22;39461;40.948;73.006;2022-08-01T13:32:30;30.10;55.60
42867;DHT22;39461;40.948;73.006;2022-08-01T13:35:11;30.10;55.80
42867;DHT22;39461;40.948;73.006;2022-08-01T13:37:49;30.00;55.50
42867;DHT22;39461;40.948;73.006;2022-08-01T13:40:47;29.90;55.50
42867;DHT22;39461;40.948;73.006;2022-08-01T13:43:23;29.90;55.60
42867;DHT22;39461;40.948;73.006;2022-08-01T13:46:03;29.80;55.90
42867;DHT22;39461;40.948;73.006;2022-08-01T13:48:49;29.80;55.80
42867;DHT22;39461;40.948;73.006;2022-08-01T13:51:26;29.70;55.90
42867;DHT22;39461;40.948;73.006;2022-08-01T13:54:10;29.60;56.10
42867;DHT22;39461;40.948;73.006;2022-08-01T13:56:49;29.60;56.30
42867;DHT22;39461;40.948;73.006;2022-08-01T13:59:27;29.50;56.40
42867;DHT22;39461;40.948;73.006;2022-08-01T14:02:04;29.40;56.50
42867;DHT22;39461;40.948;73.006;2022-08-01T14:04:42;29.40;56.80
42867;DHT22;39461;40.948;73.006;2022-08-01T14:07:22;29.40;56.70
42867;DHT22;39461;40.948;73.006;2022-08-01T14:09:56;29.40;57.00
42867;DHT22;39461;40.948;73.006;2022-08-01T14:12:35;29.40;57.10
42867;DHT22;39461;40.948;73.006;2022-08-01T14:15:32;29.40;57.10
42867;DHT22;39461;40.948;73.006;2022-08-01T14:18:18;29.30;56.80
42867;DHT22;39461;40.948;73.006;2022-08-01T14:21:21;29.30;56.90
42867;DHT22;39461;40.948;73.006;2022-08-01T14:24:14;29.30;56.90
42867;DHT22;39461;40.948;73.006;2022-08-01T14:26:56;29.20;57.30
42867;DHT22;39461;40.948;73.006;2022-08-01T14:29:34;29.20;57.60
42867;DHT22;39461;40.948;73.006;2022-08-01T14:32:07;29.20;57.50
42867;DHT22;39461;40.948;73.006;2022-08-01T14:34:50;29.10;57.80
42867;DHT22;39461;40.948;73.006;2022-08-01T14:37:43;29.10;58.50
42867;DHT22;39461;40.948;73.006;2022-08-01T14:40:25;29.10;58.30
42867;DHT22;39461;40.948;73.006;2022-08-01T14:43:20;29.00;59.20
42867;DHT22;39461;40.948;73.006;2022-08-01T14:46:05;28.90;59.70
42867;DHT22;39461;40.948;73.006;2022-08-01T14:48:45;28.90;60.00
42867;DHT22;39461;40.948;73.006;2022-08-01T14:51:55;28.80;60.20
42867;DHT22;39461;40.948;73.006;2022-08-01T14:54:48;28.70;60.50
42867;DHT22;39461;40.948;73.006;2022-08-01T14:57:22;28.70;60.50
42867;DHT22;39461;40.948;73.006;2022-08-01T15:00:24;28.60;61.00
42867;DHT22;39461;40.948;73.006;2022-08-01T15:03:22;28.60;60.80
42867;DHT22;39461;40.948;73.006;2022-08-01T15:06:09;28.50;61.30
42867;DHT22;39461;40.948;73.006;2022-08-01T15:09:04;28.40;61.40
42867;DHT22;39461;40.948;73.006;2022-08-01T15:11:45;28.30;61.30
42867;DHT22;39461;40.948;73.006;2022-08-01T15:14:38;28.30;60.70
42867;DHT22;39461;40.948;73.006;2022-08-01T15:17:36;28.40;60.50
42867;DHT22;39461;40.948;73.006;2022-08-01T15:21:05;28.40;60.80
42867;DHT22;39461;40.948;73.006;2022-08-01T15:23:59;28.40;61.00
42867;DHT22;39461;40.948;73.006;2022-08-01T15:26:50;28.30;61.30
42867;DHT22;39461;40.948;73.006;2022-08-01T15:29:36;28.20;61.10
42867;DHT22;39461;40.948;73.006;2022-08-01T15:32:41;28.10;61.40
42867;DHT22;39461;40.948;73.006;2022-08-01T15:35:37;28.10;61.30
42867;DHT22;39461;40.948;73.006;2022-08-01T15:38:22;28.10;61.30
42867;DHT22;39461;40.948;73.006;2022-08-01T15:41:08;28.10;61.40
42867;DHT22;39461;40.948;73.006;2022-08-01T15:44:24;28.10;61.20
42867;DHT22;39461;40.948;73.006;2022-08-01T15:47:10;28.00;61.00
42867;DHT22;39461;40.948;73.006;2022-08-01T15:50:18;28.00;61.10
42867;DHT22;39461;40.948;73.006;2022-08-01T15:53:05;28.00;61.10
42867;DHT22;39461;40.948;73.006;2022-08-01T15:55:50;28.00;61.10
42867;DHT22;39461;40.948;73.006;2022-08-01T15:58:32;28.00;61.20
42867;DHT22;39461;40.948;73.006;2022-08-01T16:01:15;27.90;61.00
42867;DHT22;39461;40.948;73.006;2022-08-01T16:04:14;27.90;61.00
42867;DHT22;39461;40.948;73.006;2022-08-01T16:07:45;27.80;61.20
42867;DHT22;39461;40.948;73.006;2022-08-01T16:10:38;27.70;60.90
42867;DHT22;39461;40.948;73.006;2022-08-01T16:13:30;27.80;60.90
42867;DHT22;39461;40.948;73.006;2022-08-01T16:16:18;27.70;60.80
42867;DHT22;39461;40.948;73.006;2022-08-01T16:19:17;27.80;61.00
42867;DHT22;39461;40.948;73.006;2022-08-01T16:22:29;27.70;61.20
42867;DHT22;39461;40.948;73.006;2022-08-01T16:25:11;27.60;61.10
42867;DHT22;39461;40.948;73.006;2022-08-01T16:28:00;27.60;61.20
42867;DHT22;39461;40.948;73.006;2022-08-01T16:30:57;27.50;61.30
42867;DHT22;39461;40.948;73.006;2022-08-01T16:33:38;27.50;61.40
42867;DHT22;39461;40.948;73.006;2022-08-01T16:36:27;27.40;61.60
42867;DHT22;39461;40.948;73.006;2022-08-01T16:39:20;27.40;62.40
42867;DHT22;39461;40.948;73.006;2022-08-01T16:42:06;27.20;62.50
42867;DHT22;39461;40.948;73.006;2022-08-01T16:44:58;27.10;62.60
42867;DHT22;39461;40.948;73.006;2022-08-01T16:47:37;27.10;62.30
42867;DHT22;39461;40.948;73.006;2022-08-01T16:50:32;27.00;62.20
42867;DHT22;39461;40.948;73.006;2022-08-01T16:53:23;26.90;62.10
42867;DHT22;39461;40.948;73.006;2022-08-01T16:56:18;27.00;62.30
42867;DHT22;39461;40.948;73.006;2022-08-01T16:59:30;26.90;62.50
42867;DHT22;39461;40.948;73.006;2022-08-01T17:02:17;26.80;62.50
42867;DHT22;39461;40.948;73.006;2022-08-01T17:05:05;26.90;62.40
42867;DHT22;39461;40.948;73.006;2022-08-01T17:08:10;26.80;62.50
42867;DHT22;39461;40.948;73.006;2022-08-01T17:11:03;26.80;62.40
42867;DHT22;39461;40.948;73.006;2022-08-01T17:13:51;26.80;62.80
42867;DHT22;39461;40.948;73.006;2022-08-01T17:16:39;26.80;63.10